sensor_id;sensor_type;location;lat;lon;timestamp;P1;durP1;ratioP1;P2;durP2;ratioP2
58260;SDS011;44058;52.898;6.502;2024-03-22T00:04:30;28.63;;;21.52;;
58260;SDS011;44058;52.898;6.502;2024-03-22T00:06:57;33.85;;;21.95;;
58260;SDS011;44058;52.898;6.502;2024-03-22T00:09:25;30.10;;;21.95;;
58260;SDS011;44058;52.898;6.502;2024-03-22T00:11:52;30.67;;;21.58;;
58260;SDS011;44058;52.898;6.502;2024-03-22T00:14:19;34.42;;;22.88;;
58260;SDS011;44058;52.898;6.502;2024-03-22T00:16:47;31.40;;;22.52;;
58260;SDS011;44058;52.898;6.502;2024-03-22T00:19:14;31.85;;;22.17;;
58260;SDS011;44058;52.898;6.502;2024-03-22T00:21:41;31.38;;;21.95;;
58260;SDS011;44058;52.898;6.502;2024-03-22T00:24:09;32.00;;;23.45;;
58260;SDS011;44058;52.898;6.502;2024-03-22T00:26:36;31.67;;;23.10;;
58260;SDS011;44058;52.898;6.502;2024-03-22T00:29:03;34.47;;;24.10;;
58260;SDS011;44058;52.898;6.502;2024-03-22T00:31:30;35.47;;;23.73;;
58260;SDS011;44058;52.898;6.502;2024-03-22T00:33:57;32.95;;;24.50;;
58260;SDS011;44058;52.898;6.502;2024-03-22T00:36:25;37.22;;;25.70;;
58260;SDS011;44058;52.898;6.502;2024-03-22T00:38:52;35.75;;;25.02;;
58260;SDS011;44058;52.898;6.502;2024-03-22T00:41:19;36.38;;;24.48;;
58260;SDS011;44058;52.898;6.502;2024-03-22T00:43:46;37.83;;;25.77;;
58260;SDS011;44058;52.898;6.502;2024-03-22T00:46:13;42.20;;;26.25;;
58260;SDS011;44058;52.898;6.502;2024-03-22T00:48:41;37.33;;;26.05;;
58260;SDS011;44058;52.898;6.502;2024-03-22T00:51:08;40.65;;;26.33;;
58260;SDS011;44058;52.898;6.502;2024-03-22T00:53:35;40.47;;;26.88;;
58260;SDS011;44058;52.898;6.502;2024-03-22T00:56:02;38.30;;;26.08;;
58260;SDS011;44058;52.898;6.502;2024-03-22T00:58:30;40.08;;;27.67;;
58260;SDS011;44058;52.898;6.502;2024-03-22T01:00:57;42.83;;;28.27;;
58260;SDS011;44058;52.898;6.502;2024-03-22T01:03:24;41.28;;;29.02;;
58260;SDS011;44058;52.898;6.502;2024-03-22T01:05:52;39.40;;;27.88;;
58260;SDS011;44058;52.898;6.502;2024-03-22T01:08:19;42.53;;;28.48;;
58260;SDS011;44058;52.898;6.502;2024-03-22T01:10:47;42.95;;;28.33;;
58260;SDS011;44058;52.898;6.502;2024-03-22T01:13:14;46.05;;;29.13;;
58260;SDS011;44058;52.898;6.502;2024-03-22T01:15:42;44.78;;;29.13;;
58260;SDS011;44058;52.898;6.502;2024-03-22T01:18:10;40.53;;;28.17;;
58260;SDS011;44058;52.898;6.502;2024-03-22T01:20:37;42.83;;;28.45;;
58260;SDS011;44058;52.898;6.502;2024-03-22T01:23:04;43.13;;;29.17;;
58260;SDS011;44058;52.898;6.502;2024-03-22T01:25:32;43.65;;;30.08;;
58260;SDS011;44058;52.898;6.502;2024-03-22T01:27:59;43.00;;;29.05;;
58260;SDS011;44058;52.898;6.502;2024-03-22T01:30:26;46.30;;;29.33;;
58260;SDS011;44058;52.898;6.502;2024-03-22T01:32:55;48.83;;;31.05;;
58260;SDS011;44058;52.898;6.502;2024-03-22T01:35:22;47.53;;;30.05;;
58260;SDS011;44058;52.898;6.502;2024-03-22T01:37:49;46.33;;;29.77;;
58260;SDS011;44058;52.898;6.502;2024-03-22T01:40:16;47.15;;;29.83;;
58260;SDS011;44058;52.898;6.502;2024-03-22T01:42:44;46.95;;;31.23;;
58260;SDS011;44058;52.898;6.502;2024-03-22T01:45:11;44.03;;;29.98;;
58260;SDS011;44058;52.898;6.502;2024-03-22T01:47:40;48.53;;;31.10;;
58260;SDS011;44058;52.898;6.502;2024-03-22T01:50:08;48.10;;;31.30;;
58260;SDS011;44058;52.898;6.502;2024-03-22T01:52:37;49.88;;;31.45;;
58260;SDS011;44058;52.898;6.502;2024-03-22T01:55:06;48.67;;;31.70;;
58260;SDS011;44058;52.898;6.502;2024-03-22T01:57:33;46.30;;;31.40;;
58260;SDS011;44058;52.898;6.502;2024-03-22T02:00:01;48.63;;;31.98;;
58260;SDS011;44058;52.898;6.502;2024-03-22T02:02:29;47.13;;;31.85;;
58260;SDS011;44058;52.898;6.502;2024-03-22T02:04:56;47.45;;;32.33;;
58260;SDS011;44058;52.898;6.502;2024-03-22T02:07:24;52.05;;;32.75;;
58260;SDS011;44058;52.898;6.502;2024-03-22T02:09:51;45.45;;;29.75;;
58260;SDS011;44058;52.898;6.502;2024-03-22T02:12:19;50.92;;;31.45;;
58260;SDS011;44058;52.898;6.502;2024-03-22T02:14:46;50.45;;;32.05;;
58260;SDS011;44058;52.898;6.502;2024-03-22T02:17:13;47.15;;;31.92;;
58260;SDS011;44058;52.898;6.502;2024-03-22T02:19:40;50.47;;;32.35;;
58260;SDS011;44058;52.898;6.502;2024-03-22T02:22:08;52.10;;;33.83;;
58260;SDS011;44058;52.898;6.502;2024-03-22T02:24:35;52.35;;;32.80;;
58260;SDS011;44058;52.898;6.502;2024-03-22T02:27:02;49.42;;;32.65;;
58260;SDS011;44058;52.898;6.502;2024-03-22T02:29:29;55.80;;;34.03;;
58260;SDS011;44058;52.898;6.502;2024-03-22T02:31:57;52.30;;;32.92;;
58260;SDS011;44058;52.898;6.502;2024-03-22T02:34:24;53.92;;;33.95;;
58260;SDS011;44058;52.898;6.502;2024-03-22T02:36:51;51.22;;;32.22;;
58260;SDS011;44058;52.898;6.502;2024-03-22T02:39:18;49.90;;;32.28;;
58260;SDS011;44058;52.898;6.502;2024-03-22T02:41:46;51.08;;;32.95;;
58260;SDS011;44058;52.898;6.502;2024-03-22T02:44:13;51.55;;;33.60;;
58260;SDS011;44058;52.898;6.502;2024-03-22T02:46:40;55.17;;;34.70;;
58260;SDS011;44058;52.898;6.502;2024-03-22T02:49:07;53.75;;;34.80;;
58260;SDS011;44058;52.898;6.502;2024-03-22T02:51:34;53.78;;;33.45;;
58260;SDS011;44058;52.898;6.502;2024-03-22T02:54:02;55.97;;;34.33;;
58260;SDS011;44058;52.898;6.502;2024-03-22T02:56:29;53.55;;;34.40;;
58260;SDS011;44058;52.898;6.502;2024-03-22T02:58:56;55.47;;;33.53;;
58260;SDS011;44058;52.898;6.502;2024-03-22T03:01:23;51.35;;;33.45;;
58260;SDS011;44058;52.898;6.502;2024-03-22T03:03:50;56.00;;;35.47;;
58260;SDS011;44058;52.898;6.502;2024-03-22T03:06:18;55.47;;;34.03;;
58260;SDS011;44058;52.898;6.502;2024-03-22T03:08:46;51.70;;;33.17;;
58260;SDS011;44058;52.898;6.502;2024-03-22T03:11:16;53.90;;;34.65;;
58260;SDS011;44058;52.898;6.502;2024-03-22T03:13:44;53.80;;;33.67;;
58260;SDS011;44058;52.898;6.502;2024-03-22T03:16:11;51.20;;;32.92;;
58260;SDS011;44058;52.898;6.502;2024-03-22T03:18:38;54.95;;;33.50;;
58260;SDS011;44058;52.898;6.502;2024-03-22T03:21:07;53.65;;;33.75;;
58260;SDS011;44058;52.898;6.502;2024-03-22T03:23:34;57.60;;;33.83;;
58260;SDS011;44058;52.898;6.502;2024-03-22T03:26:02;55.38;;;34.15;;
58260;SDS011;44058;52.898;6.502;2024-03-22T03:28:29;56.70;;;34.10;;
58260;SDS011;44058;52.898;6.502;2024-03-22T03:30:56;57.40;;;33.95;;
58260;SDS011;44058;52.898;6.502;2024-03-22T03:33:23;58.25;;;34.33;;
58260;SDS011;44058;52.898;6.502;2024-03-22T03:35:50;53.90;;;34.22;;
58260;SDS011;44058;52.898;6.502;2024-03-22T03:38:18;55.92;;;34.33;;
58260;SDS011;44058;52.898;6.502;2024-03-22T03:40:45;53.75;;;35.05;;
58260;SDS011;44058;52.898;6.502;2024-03-22T03:43:12;52.58;;;33.95;;
58260;SDS011;44058;52.898;6.502;2024-03-22T03:45:39;58.20;;;34.35;;
58260;SDS011;44058;52.898;6.502;2024-03-22T03:48:07;56.28;;;33.63;;
58260;SDS011;44058;52.898;6.502;2024-03-22T03:50:34;58.28;;;35.10;;
58260;SDS011;44058;52.898;6.502;2024-03-22T03:53:01;54.40;;;33.25;;
58260;SDS011;44058;52.898;6.502;2024-03-22T03:55:28;59.63;;;34.20;;
58260;SDS011;44058;52.898;6.502;2024-03-22T03:57:55;58.70;;;33.38;;
58260;SDS011;44058;52.898;6.502;2024-03-22T04:00:23;57.97;;;33.10;;
58260;SDS011;44058;52.898;6.502;2024-03-22T04:02:50;56.60;;;33.13;;
58260;SDS011;44058;52.898;6.502;2024-03-22T04:05:17;56.03;;;34.55;;
58260;SDS011;44058;52.898;6.502;2024-03-22T04:07:48;55.50;;;33.28;;
58260;SDS011;44058;52.898;6.502;2024-03-22T04:10:15;56.58;;;33.97;;
58260;SDS011;44058;52.898;6.502;2024-03-22T04:12:44;58.90;;;34.28;;
58260;SDS011;44058;52.898;6.502;2024-03-22T04:15:12;54.92;;;33.80;;
58260;SDS011;44058;52.898;6.502;2024-03-22T04:17:39;60.83;;;35.05;;
58260;SDS011;44058;52.898;6.502;2024-03-22T04:20:07;61.92;;;34.28;;
58260;SDS011;44058;52.898;6.502;2024-03-22T04:22:34;59.10;;;32.88;;
58260;SDS011;44058;52.898;6.502;2024-03-22T04:25:02;58.30;;;32.72;;
58260;SDS011;44058;52.898;6.502;2024-03-22T04:27:29;54.60;;;32.95;;
58260;SDS011;44058;52.898;6.502;2024-03-22T04:29:56;56.08;;;32.17;;
58260;SDS011;44058;52.898;6.502;2024-03-22T04:32:24;58.40;;;34.00;;
58260;SDS011;44058;52.898;6.502;2024-03-22T04:34:51;55.47;;;31.88;;
58260;SDS011;44058;52.898;6.502;2024-03-22T04:37:19;55.60;;;32.22;;
58260;SDS011;44058;52.898;6.502;2024-03-22T04:39:46;55.70;;;32.20;;
58260;SDS011;44058;52.898;6.502;2024-03-22T04:42:13;59.30;;;31.48;;
58260;SDS011;44058;52.898;6.502;2024-03-22T04:44:42;60.33;;;31.92;;
58260;SDS011;44058;52.898;6.502;2024-03-22T04:47:09;58.35;;;31.38;;
58260;SDS011;44058;52.898;6.502;2024-03-22T04:49:36;52.78;;;29.17;;
58260;SDS011;44058;52.898;6.502;2024-03-22T04:52:03;53.08;;;31.00;;
58260;SDS011;44058;52.898;6.502;2024-03-22T04:54:31;55.72;;;31.20;;
58260;SDS011;44058;52.898;6.502;2024-03-22T04:56:58;58.70;;;32.00;;
58260;SDS011;44058;52.898;6.502;2024-03-22T04:59:25;54.30;;;30.02;;
58260;SDS011;44058;52.898;6.502;2024-03-22T05:01:52;55.30;;;31.33;;
58260;SDS011;44058;52.898;6.502;2024-03-22T05:04:20;56.65;;;30.85;;
58260;SDS011;44058;52.898;6.502;2024-03-22T05:06:47;54.97;;;31.88;;
58260;SDS011;44058;52.898;6.502;2024-03-22T05:09:14;54.00;;;30.90;;
58260;SDS011;44058;52.898;6.502;2024-03-22T05:11:41;53.05;;;29.45;;
58260;SDS011;44058;52.898;6.502;2024-03-22T05:14:09;55.75;;;30.45;;
58260;SDS011;44058;52.898;6.502;2024-03-22T05:16:37;52.13;;;27.90;;
58260;SDS011;44058;52.898;6.502;2024-03-22T05:19:04;50.67;;;29.05;;
58260;SDS011;44058;52.898;6.502;2024-03-22T05:21:31;48.85;;;27.58;;
58260;SDS011;44058;52.898;6.502;2024-03-22T05:23:58;51.70;;;28.52;;
58260;SDS011;44058;52.898;6.502;2024-03-22T05:26:26;50.72;;;28.70;;
58260;SDS011;44058;52.898;6.502;2024-03-22T05:28:53;51.50;;;27.55;;
58260;SDS011;44058;52.898;6.502;2024-03-22T05:31:20;50.00;;;28.52;;
58260;SDS011;44058;52.898;6.502;2024-03-22T05:33:47;50.33;;;28.52;;
58260;SDS011;44058;52.898;6.502;2024-03-22T05:36:14;49.75;;;28.92;;
58260;SDS011;44058;52.898;6.502;2024-03-22T05:38:42;49.10;;;28.17;;
58260;SDS011;44058;52.898;6.502;2024-03-22T05:41:09;49.80;;;28.92;;
58260;SDS011;44058;52.898;6.502;2024-03-22T05:43:36;50.70;;;28.83;;
58260;SDS011;44058;52.898;6.502;2024-03-22T05:46:03;49.83;;;28.05;;
58260;SDS011;44058;52.898;6.502;2024-03-22T05:48:30;50.33;;;27.63;;
58260;SDS011;44058;52.898;6.502;2024-03-22T05:50:58;47.67;;;28.63;;
58260;SDS011;44058;52.898;6.502;2024-03-22T05:53:25;49.47;;;27.38;;
58260;SDS011;44058;52.898;6.502;2024-03-22T05:55:52;44.47;;;25.98;;
58260;SDS011;44058;52.898;6.502;2024-03-22T05:58:19;45.42;;;26.02;;
58260;SDS011;44058;52.898;6.502;2024-03-22T06:00:46;46.05;;;25.95;;
58260;SDS011;44058;52.898;6.502;2024-03-22T06:03:14;45.78;;;26.17;;
58260;SDS011;44058;52.898;6.502;2024-03-22T06:05:41;46.47;;;26.48;;
58260;SDS011;44058;52.898;6.502;2024-03-22T06:08:09;48.22;;;25.25;;
58260;SDS011;44058;52.898;6.502;2024-03-22T06:10:36;46.58;;;25.35;;
58260;SDS011;44058;52.898;6.502;2024-03-22T06:13:03;47.03;;;25.92;;
58260;SDS011;44058;52.898;6.502;2024-03-22T06:15:30;46.53;;;25.98;;
58260;SDS011;44058;52.898;6.502;2024-03-22T06:17:58;46.13;;;26.05;;
58260;SDS011;44058;52.898;6.502;2024-03-22T06:20:25;41.38;;;24.77;;
58260;SDS011;44058;52.898;6.502;2024-03-22T06:22:53;46.30;;;25.90;;
58260;SDS011;44058;52.898;6.502;2024-03-22T06:25:20;46.35;;;24.77;;
58260;SDS011;44058;52.898;6.502;2024-03-22T06:27:47;42.35;;;24.83;;
58260;SDS011;44058;52.898;6.502;2024-03-22T06:30:14;44.97;;;25.20;;
58260;SDS011;44058;52.898;6.502;2024-03-22T06:32:41;42.33;;;24.92;;
58260;SDS011;44058;52.898;6.502;2024-03-22T06:35:09;37.47;;;22.98;;
58260;SDS011;44058;52.898;6.502;2024-03-22T06:37:38;41.92;;;24.38;;
58260;SDS011;44058;52.898;6.502;2024-03-22T06:40:06;42.27;;;24.23;;
58260;SDS011;44058;52.898;6.502;2024-03-22T06:42:33;41.97;;;23.52;;
58260;SDS011;44058;52.898;6.502;2024-03-22T06:45:01;39.92;;;24.20;;
58260;SDS011;44058;52.898;6.502;2024-03-22T06:47:28;43.63;;;25.63;;
58260;SDS011;44058;52.898;6.502;2024-03-22T06:49:56;41.20;;;23.05;;
58260;SDS011;44058;52.898;6.502;2024-03-22T06:52:24;38.13;;;24.00;;
58260;SDS011;44058;52.898;6.502;2024-03-22T06:54:51;43.53;;;22.73;;
58260;SDS011;44058;52.898;6.502;2024-03-22T06:57:19;38.90;;;23.23;;
58260;SDS011;44058;52.898;6.502;2024-03-22T06:59:46;39.53;;;22.17;;
58260;SDS011;44058;52.898;6.502;2024-03-22T07:02:14;39.83;;;22.27;;
58260;SDS011;44058;52.898;6.502;2024-03-22T07:04:41;43.22;;;21.95;;
58260;SDS011;44058;52.898;6.502;2024-03-22T07:07:08;42.58;;;22.48;;
58260;SDS011;44058;52.898;6.502;2024-03-22T07:09:35;36.33;;;21.13;;
58260;SDS011;44058;52.898;6.502;2024-03-22T07:12:03;34.00;;;20.23;;
58260;SDS011;44058;52.898;6.502;2024-03-22T07:14:30;40.20;;;21.30;;
58260;SDS011;44058;52.898;6.502;2024-03-22T07:16:57;34.22;;;20.30;;
58260;SDS011;44058;52.898;6.502;2024-03-22T07:19:25;34.10;;;19.17;;
58260;SDS011;44058;52.898;6.502;2024-03-22T07:21:53;30.17;;;19.65;;
58260;SDS011;44058;52.898;6.502;2024-03-22T07:24:20;34.95;;;20.08;;
58260;SDS011;44058;52.898;6.502;2024-03-22T07:26:50;33.85;;;19.05;;
58260;SDS011;44058;52.898;6.502;2024-03-22T07:29:17;34.03;;;19.23;;
58260;SDS011;44058;52.898;6.502;2024-03-22T07:31:44;35.30;;;19.95;;
58260;SDS011;44058;52.898;6.502;2024-03-22T07:34:11;33.03;;;18.48;;
58260;SDS011;44058;52.898;6.502;2024-03-22T07:36:39;33.88;;;17.98;;
58260;SDS011;44058;52.898;6.502;2024-03-22T07:39:06;33.45;;;17.13;;
58260;SDS011;44058;52.898;6.502;2024-03-22T07:41:34;34.22;;;17.45;;
58260;SDS011;44058;52.898;6.502;2024-03-22T07:44:01;30.92;;;17.27;;
58260;SDS011;44058;52.898;6.502;2024-03-22T07:46:29;28.15;;;16.35;;
58260;SDS011;44058;52.898;6.502;2024-03-22T07:48:56;33.08;;;17.10;;
58260;SDS011;44058;52.898;6.502;2024-03-22T07:51:24;30.67;;;16.60;;
58260;SDS011;44058;52.898;6.502;2024-03-22T07:53:51;30.40;;;16.08;;
58260;SDS011;44058;52.898;6.502;2024-03-22T07:56:18;26.65;;;15.18;;
58260;SDS011;44058;52.898;6.502;2024-03-22T07:58:45;28.60;;;15.02;;
58260;SDS011;44058;52.898;6.502;2024-03-22T08:01:13;31.10;;;15.95;;
58260;SDS011;44058;52.898;6.502;2024-03-22T08:03:40;30.23;;;15.52;;
58260;SDS011;44058;52.898;6.502;2024-03-22T08:06:07;29.58;;;14.65;;
58260;SDS011;44058;52.898;6.502;2024-03-22T08:08:35;27.85;;;14.05;;
58260;SDS011;44058;52.898;6.502;2024-03-22T08:11:02;30.65;;;15.02;;
58260;SDS011;44058;52.898;6.502;2024-03-22T08:13:29;26.15;;;14.23;;
58260;SDS011;44058;52.898;6.502;2024-03-22T08:15:56;24.27;;;14.63;;
58260;SDS011;44058;52.898;6.502;2024-03-22T08:18:24;28.83;;;15.60;;
58260;SDS011;44058;52.898;6.502;2024-03-22T08:20:52;25.52;;;14.02;;
58260;SDS011;44058;52.898;6.502;2024-03-22T08:23:19;26.65;;;15.05;;
58260;SDS011;44058;52.898;6.502;2024-03-22T08:25:49;28.15;;;14.80;;
58260;SDS011;44058;52.898;6.502;2024-03-22T08:28:16;29.55;;;14.80;;
58260;SDS011;44058;52.898;6.502;2024-03-22T08:30:43;32.63;;;16.67;;
58260;SDS011;44058;52.898;6.502;2024-03-22T08:33:10;28.05;;;14.43;;
58260;SDS011;44058;52.898;6.502;2024-03-22T08:35:38;25.48;;;13.95;;
58260;SDS011;44058;52.898;6.502;2024-03-22T08:38:06;31.40;;;15.73;;
58260;SDS011;44058;52.898;6.502;2024-03-22T08:40:37;31.45;;;15.13;;
58260;SDS011;44058;52.898;6.502;2024-03-22T08:43:05;34.70;;;15.10;;
58260;SDS011;44058;52.898;6.502;2024-03-22T08:45:33;29.85;;;15.05;;
58260;SDS011;44058;52.898;6.502;2024-03-22T08:48:01;26.77;;;16.10;;
58260;SDS011;44058;52.898;6.502;2024-03-22T08:50:28;31.38;;;15.50;;
58260;SDS011;44058;52.898;6.502;2024-03-22T08:52:56;26.58;;;15.48;;
58260;SDS011;44058;52.898;6.502;2024-03-22T08:55:23;27.25;;;15.63;;
58260;SDS011;44058;52.898;6.502;2024-03-22T08:57:50;26.98;;;14.13;;
58260;SDS011;44058;52.898;6.502;2024-03-22T09:00:17;26.73;;;15.00;;
58260;SDS011;44058;52.898;6.502;2024-03-22T09:02:44;32.38;;;15.48;;
58260;SDS011;44058;52.898;6.502;2024-03-22T09:05:12;28.92;;;16.33;;
58260;SDS011;44058;52.898;6.502;2024-03-22T09:07:39;29.50;;;14.70;;
58260;SDS011;44058;52.898;6.502;2024-03-22T09:10:06;27.25;;;14.82;;
58260;SDS011;44058;52.898;6.502;2024-03-22T09:12:34;27.98;;;15.68;;
58260;SDS011;44058;52.898;6.502;2024-03-22T09:15:01;27.15;;;15.02;;
58260;SDS011;44058;52.898;6.502;2024-03-22T09:17:28;24.52;;;14.25;;
58260;SDS011;44058;52.898;6.502;2024-03-22T09:19:56;29.58;;;15.27;;
58260;SDS011;44058;52.898;6.502;2024-03-22T09:22:24;27.27;;;14.70;;
58260;SDS011;44058;52.898;6.502;2024-03-22T09:24:51;21.17;;;13.38;;
58260;SDS011;44058;52.898;6.502;2024-03-22T09:27:18;24.02;;;13.65;;
58260;SDS011;44058;52.898;6.502;2024-03-22T09:29:45;25.65;;;13.95;;
58260;SDS011;44058;52.898;6.502;2024-03-22T09:32:15;23.27;;;13.23;;
58260;SDS011;44058;52.898;6.502;2024-03-22T09:34:43;22.15;;;13.65;;
58260;SDS011;44058;52.898;6.502;2024-03-22T09:37:10;23.27;;;12.75;;
58260;SDS011;44058;52.898;6.502;2024-03-22T09:39:37;22.00;;;13.15;;
58260;SDS011;44058;52.898;6.502;2024-03-22T09:42:05;20.13;;;12.65;;
58260;SDS011;44058;52.898;6.502;2024-03-22T09:44:33;20.25;;;12.27;;
58260;SDS011;44058;52.898;6.502;2024-03-22T09:47:00;18.92;;;12.05;;
58260;SDS011;44058;52.898;6.502;2024-03-22T09:49:27;19.10;;;12.43;;
58260;SDS011;44058;52.898;6.502;2024-03-22T09:51:55;16.15;;;10.45;;
58260;SDS011;44058;52.898;6.502;2024-03-22T09:54:23;16.65;;;9.85;;
58260;SDS011;44058;52.898;6.502;2024-03-22T09:56:51;17.98;;;9.98;;
58260;SDS011;44058;52.898;6.502;2024-03-22T09:59:18;18.52;;;11.95;;
58260;SDS011;44058;52.898;6.502;2024-03-22T10:01:45;14.60;;;9.93;;
58260;SDS011;44058;52.898;6.502;2024-03-22T10:04:13;15.50;;;10.30;;
58260;SDS011;44058;52.898;6.502;2024-03-22T10:06:40;17.63;;;10.73;;
58260;SDS011;44058;52.898;6.502;2024-03-22T10:09:08;16.73;;;10.10;;
58260;SDS011;44058;52.898;6.502;2024-03-22T10:11:35;15.40;;;10.05;;
58260;SDS011;44058;52.898;6.502;2024-03-22T10:14:02;14.70;;;9.02;;
58260;SDS011;44058;52.898;6.502;2024-03-22T10:16:34;16.55;;;9.77;;
58260;SDS011;44058;52.898;6.502;2024-03-22T10:19:01;14.45;;;9.40;;
58260;SDS011;44058;52.898;6.502;2024-03-22T10:21:28;13.10;;;8.57;;
58260;SDS011;44058;52.898;6.502;2024-03-22T10:23:58;11.27;;;8.18;;
58260;SDS011;44058;52.898;6.502;2024-03-22T10:26:25;13.18;;;8.73;;
58260;SDS011;44058;52.898;6.502;2024-03-22T10:28:52;10.63;;;7.15;;
58260;SDS011;44058;52.898;6.502;2024-03-22T10:31:20;10.70;;;6.70;;
58260;SDS011;44058;52.898;6.502;2024-03-22T10:33:47;10.85;;;7.00;;
58260;SDS011;44058;52.898;6.502;2024-03-22T10:36:15;9.23;;;6.88;;
58260;SDS011;44058;52.898;6.502;2024-03-22T10:38:44;9.32;;;6.53;;
58260;SDS011;44058;52.898;6.502;2024-03-22T10:41:11;8.52;;;5.68;;
58260;SDS011;44058;52.898;6.502;2024-03-22T10:43:38;8.93;;;6.82;;
58260;SDS011;44058;52.898;6.502;2024-03-22T10:46:06;10.23;;;5.75;;
58260;SDS011;44058;52.898;6.502;2024-03-22T10:48:35;8.02;;;6.05;;
58260;SDS011;44058;52.898;6.502;2024-03-22T10:51:02;7.80;;;5.50;;
58260;SDS011;44058;52.898;6.502;2024-03-22T10:53:30;8.98;;;5.72;;
58260;SDS011;44058;52.898;6.502;2024-03-22T10:55:59;8.73;;;5.30;;
58260;SDS011;44058;52.898;6.502;2024-03-22T10:58:27;6.75;;;4.90;;
58260;SDS011;44058;52.898;6.502;2024-03-22T11:00:55;8.38;;;5.40;;
58260;SDS011;44058;52.898;6.502;2024-03-22T11:03:25;6.10;;;4.95;;
58260;SDS011;44058;52.898;6.502;2024-03-22T11:05:55;6.70;;;5.03;;
58260;SDS011;44058;52.898;6.502;2024-03-22T11:08:26;6.75;;;5.15;;
58260;SDS011;44058;52.898;6.502;2024-03-22T11:10:53;7.57;;;5.13;;
58260;SDS011;44058;52.898;6.502;2024-03-22T11:13:21;6.07;;;4.28;;
58260;SDS011;44058;52.898;6.502;2024-03-22T11:15:49;7.22;;;4.57;;
58260;SDS011;44058;52.898;6.502;2024-03-22T11:18:16;7.10;;;4.53;;
58260;SDS011;44058;52.898;6.502;2024-03-22T11:20:43;5.47;;;4.10;;
58260;SDS011;44058;52.898;6.502;2024-03-22T11:23:11;4.93;;;3.88;;
58260;SDS011;44058;52.898;6.502;2024-03-22T11:25:40;5.35;;;3.60;;
58260;SDS011;44058;52.898;6.502;2024-03-22T11:28:07;5.85;;;4.07;;
58260;SDS011;44058;52.898;6.502;2024-03-22T11:30:35;5.90;;;4.20;;
58260;SDS011;44058;52.898;6.502;2024-03-22T11:33:02;5.25;;;3.88;;
58260;SDS011;44058;52.898;6.502;2024-03-22T11:35:30;5.97;;;3.88;;
58260;SDS011;44058;52.898;6.502;2024-03-22T11:37:57;6.05;;;3.80;;
58260;SDS011;44058;52.898;6.502;2024-03-22T11:40:27;4.25;;;3.67;;
58260;SDS011;44058;52.898;6.502;2024-03-22T11:42:56;5.82;;;3.90;;
58260;SDS011;44058;52.898;6.502;2024-03-22T11:45:24;4.85;;;3.75;;
58260;SDS011;44058;52.898;6.502;2024-03-22T11:47:52;6.97;;;4.15;;
58260;SDS011;44058;52.898;6.502;2024-03-22T11:50:20;5.97;;;3.95;;
58260;SDS011;44058;52.898;6.502;2024-03-22T11:52:47;6.47;;;3.80;;
58260;SDS011;44058;52.898;6.502;2024-03-22T11:55:15;5.80;;;4.13;;
58260;SDS011;44058;52.898;6.502;2024-03-22T11:57:47;5.10;;;3.63;;
58260;SDS011;44058;52.898;6.502;2024-03-22T12:00:15;4.28;;;3.63;;
58260;SDS011;44058;52.898;6.502;2024-03-22T12:05:11;4.68;;;3.00;;
58260;SDS011;44058;52.898;6.502;2024-03-22T12:07:38;5.47;;;3.60;;
58260;SDS011;44058;52.898;6.502;2024-03-22T12:10:07;4.03;;;3.22;;
58260;SDS011;44058;52.898;6.502;2024-03-22T12:12:34;5.10;;;3.08;;
58260;SDS011;44058;52.898;6.502;2024-03-22T12:15:03;4.10;;;2.33;;
58260;SDS011;44058;52.898;6.502;2024-03-22T12:17:30;3.35;;;2.10;;
58260;SDS011;44058;52.898;6.502;2024-03-22T12:19:57;4.03;;;1.92;;
58260;SDS011;44058;52.898;6.502;2024-03-22T12:22:25;4.97;;;1.95;;
58260;SDS011;44058;52.898;6.502;2024-03-22T12:24:52;3.75;;;1.58;;
58260;SDS011;44058;52.898;6.502;2024-03-22T12:27:20;5.53;;;2.28;;
58260;SDS011;44058;52.898;6.502;2024-03-22T12:29:47;5.13;;;2.15;;
58260;SDS011;44058;52.898;6.502;2024-03-22T12:32:14;3.53;;;1.67;;
58260;SDS011;44058;52.898;6.502;2024-03-22T12:34:41;5.45;;;2.50;;
58260;SDS011;44058;52.898;6.502;2024-03-22T12:37:09;4.55;;;2.08;;
58260;SDS011;44058;52.898;6.502;2024-03-22T12:39:36;9.68;;;2.83;;
58260;SDS011;44058;52.898;6.502;2024-03-22T12:42:03;4.35;;;2.30;;
58260;SDS011;44058;52.898;6.502;2024-03-22T12:44:32;8.27;;;2.20;;
58260;SDS011;44058;52.898;6.502;2024-03-22T12:46:59;6.95;;;2.65;;
58260;SDS011;44058;52.898;6.502;2024-03-22T12:49:26;6.85;;;2.78;;
58260;SDS011;44058;52.898;6.502;2024-03-22T12:51:53;5.43;;;2.20;;
58260;SDS011;44058;52.898;6.502;2024-03-22T12:54:22;6.80;;;2.42;;
58260;SDS011;44058;52.898;6.502;2024-03-22T12:56:49;7.28;;;2.13;;
58260;SDS011;44058;52.898;6.502;2024-03-22T12:59:17;9.60;;;2.60;;
58260;SDS011;44058;52.898;6.502;2024-03-22T13:01:44;6.40;;;2.80;;
58260;SDS011;44058;52.898;6.502;2024-03-22T13:04:11;6.95;;;2.42;;
58260;SDS011;44058;52.898;6.502;2024-03-22T13:06:38;7.32;;;2.88;;
58260;SDS011;44058;52.898;6.502;2024-03-22T13:09:06;5.45;;;2.35;;
58260;SDS011;44058;52.898;6.502;2024-03-22T13:11:35;5.43;;;2.65;;
58260;SDS011;44058;52.898;6.502;2024-03-22T13:14:03;7.80;;;3.10;;
58260;SDS011;44058;52.898;6.502;2024-03-22T13:16:30;7.82;;;3.13;;
58260;SDS011;44058;52.898;6.502;2024-03-22T13:18:57;6.70;;;3.10;;
58260;SDS011;44058;52.898;6.502;2024-03-22T13:21:25;7.65;;;3.25;;
58260;SDS011;44058;52.898;6.502;2024-03-22T13:23:53;8.70;;;4.03;;
58260;SDS011;44058;52.898;6.502;2024-03-22T13:26:20;8.63;;;4.32;;
58260;SDS011;44058;52.898;6.502;2024-03-22T13:28:48;9.57;;;3.95;;
58260;SDS011;44058;52.898;6.502;2024-03-22T13:31:15;7.00;;;3.65;;
58260;SDS011;44058;52.898;6.502;2024-03-22T13:33:43;7.68;;;3.97;;
58260;SDS011;44058;52.898;6.502;2024-03-22T13:36:10;14.15;;;4.38;;
58260;SDS011;44058;52.898;6.502;2024-03-22T13:38:37;9.43;;;3.35;;
58260;SDS011;44058;52.898;6.502;2024-03-22T13:41:04;9.35;;;4.22;;
58260;SDS011;44058;52.898;6.502;2024-03-22T13:43:32;7.15;;;3.50;;
58260;SDS011;44058;52.898;6.502;2024-03-22T13:46:00;8.02;;;3.78;;
58260;SDS011;44058;52.898;6.502;2024-03-22T13:48:27;7.88;;;3.35;;
58260;SDS011;44058;52.898;6.502;2024-03-22T13:50:55;7.57;;;3.25;;
58260;SDS011;44058;52.898;6.502;2024-03-22T13:53:22;9.02;;;3.95;;
58260;SDS011;44058;52.898;6.502;2024-03-22T13:55:49;7.20;;;4.10;;
58260;SDS011;44058;52.898;6.502;2024-03-22T13:58:17;11.38;;;4.20;;
58260;SDS011;44058;52.898;6.502;2024-03-22T14:00:44;9.00;;;4.40;;
58260;SDS011;44058;52.898;6.502;2024-03-22T14:03:12;8.55;;;4.45;;
58260;SDS011;44058;52.898;6.502;2024-03-22T14:05:39;13.07;;;4.50;;
58260;SDS011;44058;52.898;6.502;2024-03-22T14:08:06;10.43;;;4.60;;
58260;SDS011;44058;52.898;6.502;2024-03-22T14:10:33;12.18;;;5.53;;
58260;SDS011;44058;52.898;6.502;2024-03-22T14:13:01;13.07;;;4.88;;
58260;SDS011;44058;52.898;6.502;2024-03-22T14:15:28;13.75;;;5.32;;
58260;SDS011;44058;52.898;6.502;2024-03-22T14:17:58;13.88;;;5.43;;
58260;SDS011;44058;52.898;6.502;2024-03-22T14:20:25;12.02;;;4.82;;
58260;SDS011;44058;52.898;6.502;2024-03-22T14:22:52;11.45;;;5.00;;
58260;SDS011;44058;52.898;6.502;2024-03-22T14:25:19;14.35;;;5.07;;
58260;SDS011;44058;52.898;6.502;2024-03-22T14:27:47;15.77;;;5.25;;
58260;SDS011;44058;52.898;6.502;2024-03-22T14:30:16;10.85;;;4.70;;
58260;SDS011;44058;52.898;6.502;2024-03-22T14:32:44;18.67;;;5.90;;
58260;SDS011;44058;52.898;6.502;2024-03-22T14:35:11;13.93;;;4.90;;